Historique des mesures à Cassis (13260), France
Quotidien Résumé Avril 15, 2020 Unités:  Métrique    US   Métrique/US
Quotidien Hebdomadaire Mensuel Annuel
  Maximum: Minimum: Moyenne:
Température: 29.5 °C 21.9 °C 25.5 °C
Point de rosée: 18.8 °C 13.9 °C 16.7 °C
Humidité: 70% 50% 59%
Vitesse du vent: 9.4km/h 0km/h 2km/h
Rafales: 16.9km/h - -
Vent- - SW
Pression: 1019.3 hPa 1016.6 hPa -
Précipitations: 0.0 mm    
Historical Graphs
 
 
Mesures pour : Avril 15, 2020
Heure Temperature Point de rosée Pression Vent Vitesse du vent Rafales Humidité Pluie (par heure)
00:12 23.6 °C 15.4 °C 1019.3 hPa NW 1.4 km/h 2.5 km/h 60% 0.0 mm
01:11 22.9 °C 15 °C 1019.1 hPa Calm   3.2 km/h 61% 0.0 mm
02:12 23 °C 14.2 °C 1018.7 hPa Calm   1.4 km/h 58% 0.0 mm
03:12 23.2 °C 13.9 °C 1018.4 hPa Calm   2.2 km/h 56% 0.0 mm
04:12 22.8 °C 14.3 °C 1018.2 hPa Calm   3.2 km/h 59% 0.0 mm
05:12 22.4 °C 14.5 °C 1018.0 hPa NNW 1.1 km/h 1.8 km/h 61% 0.0 mm
06:12 22.2 °C 14.8 °C 1018.3 hPa Calm     63% 0.0 mm
07:12 21.9 °C 14.8 °C 1018.5 hPa Calm   3.6 km/h 64% 0.0 mm
08:12 22.1 °C 15.2 °C 1018.8 hPa Calm   4.7 km/h 65% 0.0 mm
09:12 24.4 °C 16.4 °C 1018.7 hPa Calm     61% 0.0 mm
10:12 25.8 °C 16.6 °C 1019.0 hPa NNW 8.6 km/h 8.6 km/h 57% 0.0 mm
11:12 27.8 °C 17.6 °C 1018.7 hPa Calm   4.7 km/h 54% 0.0 mm
12:12 29.2 °C 17.8 °C 1018.2 hPa SSW 9.4 km/h 14.4 km/h 50% 0.0 mm
13:12 29.5 °C 18.6 °C 1018.0 hPa ESE 7.2 km/h 11.2 km/h 52% 0.0 mm
14:12 29.3 °C 18.5 °C 1017.7 hPa WSW 8.6 km/h 16.9 km/h 52% 0.0 mm
15:11 29.4 °C 18.8 °C 1017.3 hPa SSW 3.6 km/h 15.8 km/h 53% 0.0 mm
16:12 29.1 °C 18.3 °C 1016.9 hPa SW 5 km/h 10.4 km/h 52% 0.0 mm
17:12 29 °C 18.5 °C 1016.7 hPa Calm   8.6 km/h 53% 0.0 mm
18:12 28.5 °C 18.3 °C 1016.7 hPa SE 2.5 km/h 4.7 km/h 54% 0.0 mm
19:12 27.6 °C 18.3 °C 1016.6 hPa Calm   2.2 km/h 57% 0.0 mm
20:11 25.9 °C 18.1 °C 1016.7 hPa Calm     62% 0.0 mm
21:12 24.3 °C 17.8 °C 1016.9 hPa Calm   4 km/h 67% 0.0 mm
22:12 23.8 °C 16.7 °C 1016.9 hPa Calm   2.9 km/h 65% 0.0 mm
23:12 23.1 °C 17.4 °C 1016.7 hPa Calm     70% 0.0 mm
Observations météo à CASSIS
WU-History script by Weather Underground - 2 mb